Time;durP1;ratioP1;P1;durP2;ratioP2;P2;SDS_P1;SDS_P2;PMS_P1;PMS_P2;Temp;Humidity;BMP_temperature;BMP_pressure;BME280_temperature;BME280_humidity;BME280_pressure;Samples;Min_cycle;Max_cycle;Signal;HPM_P1;HPM_P2
2021/04/22 00:01:31;;;;;;;22.75;10.23;;;;;;;5.42;86.94;99337.08;1753687;80;21304;-86
2021/04/22 00:03:58;;;;;;;25.97;10.68;;;;;;;5.42;86.34;99330.63;1752074;80;21313;-86
2021/04/22 00:06:26;;;;;;;20.65;10.65;;;;;;;5.42;86.68;99337.52;1707761;82;21727;-86
2021/04/22 00:08:55;;;;;;;18.98;10.13;;;;;;;5.41;86.33;99335.77;1689033;84;21183;-83
2021/04/22 00:11:24;;;;;;;20.97;10.48;;;;;;;5.40;85.55;99337.50;1714575;84;21729;-87
2021/04/22 00:13:51;;;;;;;21.23;10.03;;;;;;;5.40;85.69;99337.50;1707344;83;21283;-86
2021/04/22 00:16:19;;;;;;;20.68;11.40;;;;;;;5.37;86.38;99337.09;1689306;84;21187;-87
2021/04/22 00:18:46;;;;;;;23.95;11.38;;;;;;;5.35;86.78;99327.61;1707069;84;21350;-87
2021/04/22 00:21:25;;;;;;;24.92;11.22;;;;;;;5.35;85.95;99329.78;1618167;87;21180;-89
2021/04/22 00:23:52;;;;;;;25.08;12.15;;;;;;;5.29;86.97;99334.94;1617360;86;21176;-87
2021/04/22 00:26:19;;;;;;;19.60;10.48;;;;;;;5.29;86.32;99329.78;1660675;85;21181;-88
2021/04/22 00:28:47;;;;;;;22.27;11.35;;;;;;;5.27;85.11;99331.50;1633039;87;21162;-89
2021/04/22 00:31:16;;;;;;;23.35;11.53;;;;;;;5.22;86.61;99333.64;1678618;82;21181;-91
2021/04/22 00:33:43;;;;;;;21.15;10.40;;;;;;;5.17;86.18;99328.47;1700124;84;21186;-88
2021/04/22 00:36:13;;;;;;;23.85;9.98;;;;;;;5.13;84.88;99334.48;1692588;78;21178;-85
2021/04/22 00:38:42;;;;;;;23.40;11.12;;;;;;;5.09;86.31;99322.05;1711342;80;21775;-83
2021/04/22 00:41:53;;;;;;;21.23;10.48;;;;;;;5.06;87.16;99326.33;1784457;78;21292;-82
2021/04/22 00:44:21;;;;;;;20.45;11.50;;;;;;;5.04;85.20;99328.91;1772406;81;21278;-84
2021/04/22 00:46:49;;;;;;;29.02;11.63;;;;;;;5.03;85.56;99321.16;1791652;79;21298;-82
2021/04/22 00:49:17;;;;;;;21.55;10.95;;;;;;;5.02;87.21;99324.61;1770925;79;21162;-82
2021/04/22 00:51:47;;;;;;;21.57;10.45;;;;;;;5.01;87.88;99325.02;1786570;80;21587;-89
2021/04/22 00:54:17;;;;;;;23.57;11.43;;;;;;;5.02;88.34;99328.48;1801861;80;21275;-91
2021/04/22 00:57:07;;;;;;;20.88;10.03;;;;;;;5.00;88.94;99328.47;1753702;76;21130;-84
2021/04/22 00:59:42;;;;;;;19.40;9.68;;;;;;;5.02;88.45;99327.19;1666225;83;21183;-85
2021/04/22 01:02:16;;;;;;;22.30;9.88;;;;;;;5.01;88.77;99318.58;1707542;84;21183;-90
2021/04/22 01:04:47;;;;;;;19.05;9.65;;;;;;;5.01;88.22;99324.17;1634330;85;21307;-82
2021/04/22 01:07:30;;;;;;;22.00;10.82;;;;;;;5.00;88.11;99325.89;1648736;85;21354;-85
2021/04/22 01:09:58;;;;;;;19.02;9.33;;;;;;;4.97;88.29;99327.16;1667468;85;21279;-87
2021/04/22 01:12:25;;;;;;;21.93;11.25;;;;;;;4.97;87.54;99333.60;1642367;86;21302;-87
2021/04/22 01:14:53;;;;;;;23.00;10.48;;;;;;;4.96;86.53;99328.89;1654055;85;21327;-86
2021/04/22 01:17:20;;;;;;;21.02;10.68;;;;;;;4.93;87.99;99331.88;1652334;87;21338;-84
2021/04/22 01:19:48;;;;;;;20.62;10.63;;;;;;;4.81;87.70;99319.84;1646508;86;21454;-89
2021/04/22 01:22:16;;;;;;;23.92;11.03;;;;;;;4.89;88.42;99333.59;1639215;86;21312;-90
2021/04/22 01:24:44;;;;;;;18.50;9.78;;;;;;;4.88;87.70;99346.05;1645780;87;21663;-90
2021/04/22 01:27:20;;;;;;;21.35;9.55;;;;;;;4.84;87.87;99343.48;1673411;84;21372;-89
2021/04/22 01:29:47;;;;;;;22.07;10.38;;;;;;;4.77;86.76;99343.88;1668763;85;21206;-88
2021/04/22 01:32:15;;;;;;;21.25;9.88;;;;;;;4.72;87.17;99345.59;1665566;86;21208;-89
2021/04/22 01:34:42;;;;;;;21.55;9.50;;;;;;;4.67;86.01;99336.55;1644079;87;21629;-89
2021/04/22 01:37:10;;;;;;;20.15;9.30;;;;;;;4.58;88.48;99339.13;1704761;84;21336;-84
2021/04/22 01:39:37;;;;;;;17.62;9.83;;;;;;;4.52;89.20;99339.95;1699937;84;21140;-80
2021/04/22 01:42:05;;;;;;;18.15;8.90;;;;;;;4.52;87.77;99350.69;1698721;84;21321;-83
2021/04/22 01:44:32;;;;;;;20.92;9.50;;;;;;;4.46;89.16;99346.37;1689555;84;22526;-84
2021/04/22 01:47:00;;;;;;;21.90;9.58;;;;;;;4.41;89.63;99339.48;1679285;85;21313;-85
2021/04/22 01:49:27;;;;;;;17.32;9.38;;;;;;;4.36;90.04;99338.19;1679476;85;21218;-87
2021/04/22 01:51:55;;;;;;;16.12;8.63;;;;;;;4.37;89.23;99345.04;1652943;85;21244;-84
2021/04/22 01:54:22;;;;;;;20.20;9.48;;;;;;;4.37;88.11;99341.17;1702050;84;21637;-88
2021/04/22 01:56:49;;;;;;;19.87;8.30;;;;;;;4.36;88.99;99352.34;1702419;83;21286;-86
2021/04/22 01:59:17;;;;;;;16.87;8.70;;;;;;;4.36;88.76;99342.91;1708220;83;21148;-86
2021/04/22 02:01:44;;;;;;;17.15;8.58;;;;;;;4.36;89.79;99345.91;1685452;84;21277;-83
2021/04/22 02:04:11;;;;;;;18.20;8.55;;;;;;;4.39;89.01;99341.61;1750052;79;21322;-79
2021/04/22 02:06:40;;;;;;;19.10;7.80;;;;;;;4.41;89.22;99345.92;1759765;79;21715;-82
2021/04/22 02:09:07;;;;;;;19.20;8.98;;;;;;;4.42;88.29;99353.66;1751724;78;21165;-82
2021/04/22 02:11:35;;;;;;;21.25;9.63;;;;;;;4.35;90.39;99351.90;1754481;78;21254;-85
2021/04/22 02:14:03;;;;;;;18.75;8.88;;;;;;;4.13;90.53;99317.05;1770531;80;21301;-90
2021/04/22 02:16:30;;;;;;;19.10;9.35;;;;;;;4.35;89.91;99345.46;1770002;80;21291;-91
2021/04/22 02:18:58;;;;;;;19.85;9.65;;;;;;;4.37;89.84;99349.75;1783269;79;21186;-91
2021/04/22 02:21:25;;;;;;;24.57;9.88;;;;;;;4.37;88.28;99345.04;1765057;80;21312;-90
2021/04/22 02:23:52;;;;;;;17.70;8.55;;;;;;;4.33;90.44;99345.45;1740248;80;21150;-89
2021/04/22 02:26:20;;;;;;;19.12;9.90;;;;;;;4.34;90.25;99335.60;1761393;80;21667;-90
2021/04/22 02:28:47;;;;;;;16.82;8.70;;;;;;;4.33;90.13;99342.02;1766850;80;21285;-91
2021/04/22 02:31:17;;;;;;;21.00;8.35;;;;;;;4.32;90.60;99335.17;1773138;80;21300;-90
2021/04/22 02:33:46;;;;;;;17.00;7.97;;;;;;;4.32;88.21;99339.88;1747288;79;21264;-82
2021/04/22 02:36:13;;;;;;;14.65;8.13;;;;;;;4.32;87.73;99340.32;1745854;81;21249;-84
2021/04/22 02:38:41;;;;;;;20.17;9.08;;;;;;;4.30;89.03;99343.31;1741457;79;22466;-84
2021/04/22 02:41:10;;;;;;;19.67;8.65;;;;;;;4.31;89.11;99347.59;1680467;81;21145;-82
2021/04/22 02:43:38;;;;;;;25.97;9.48;;;;;;;4.31;89.15;99348.44;1749327;82;22307;-86
2021/04/22 02:46:06;;;;;;;20.30;8.60;;;;;;;4.31;89.80;99339.88;1740195;81;21702;-82
2021/04/22 02:48:33;;;;;;;18.20;8.65;;;;;;;4.31;89.89;99333.44;1687842;85;21831;-84
2021/04/22 02:51:01;;;;;;;20.00;8.75;;;;;;;4.32;88.75;99332.16;1707594;84;21193;-79
2021/04/22 02:53:29;;;;;;;21.42;8.95;;;;;;;4.36;88.60;99336.47;1716206;84;21153;-82
2021/04/22 02:55:56;;;;;;;19.35;8.68;;;;;;;4.34;89.49;99335.60;1716487;84;21168;-82
2021/04/22 02:58:28;;;;;;;21.12;9.33;;;;;;;4.35;88.89;99333.88;1716830;84;21283;-82
2021/04/22 03:01:14;;;;;;;24.80;9.95;;;;;;;4.33;89.18;99336.44;1808039;78;21166;-85
2021/04/22 03:03:42;;;;;;;19.67;10.65;;;;;;;4.37;88.86;99334.74;1810598;78;21284;-90
2021/04/22 03:06:10;;;;;;;20.55;10.25;;;;;;;4.32;89.63;99345.47;1745233;77;21236;-90
2021/04/22 03:08:37;;;;;;;21.10;9.88;;;;;;;4.39;88.62;99336.46;1700263;84;21186;-88
2021/04/22 03:11:05;;;;;;;19.00;9.95;;;;;;;4.43;88.02;99345.50;1757812;81;21200;-90
2021/04/22 03:13:32;;;;;;;25.62;11.10;;;;;;;4.42;88.04;99343.77;1764339;80;21149;-87
2021/04/22 03:16:00;;;;;;;19.35;9.68;;;;;;;4.38;88.66;99346.78;1791389;78;21744;-90
2021/04/22 03:18:28;;;;;;;17.92;8.83;;;;;;;4.37;88.21;99354.91;1805156;78;21299;-90
2021/04/22 03:20:56;;;;;;;22.20;9.60;;;;;;;4.38;87.39;99348.06;1716279;79;21165;-90
2021/04/22 03:23:23;;;;;;;23.00;9.43;;;;;;;4.38;87.42;99355.78;1788691;80;21264;-86
2021/04/22 03:25:51;;;;;;;23.70;9.18;;;;;;;4.39;88.09;99352.34;1796019;80;21315;-84
2021/04/22 03:28:19;;;;;;;25.43;8.63;;;;;;;4.39;88.22;99352.34;1795884;80;21292;-83
2021/04/22 03:30:46;;;;;;;14.98;8.43;;;;;;;4.42;88.35;99352.37;1790134;80;21344;-87
2021/04/22 03:33:14;;;;;;;25.75;9.63;;;;;;;4.44;89.07;99350.66;1794755;80;21279;-85
2021/04/22 03:35:42;;;;;;;19.07;9.03;;;;;;;4.51;88.28;99352.81;1784516;80;21278;-84
2021/04/22 03:38:12;;;;;;;24.32;9.30;;;;;;;4.56;87.78;99344.26;1762243;80;21646;-86
2021/04/22 03:40:39;;;;;;;25.10;9.50;;;;;;;4.57;89.42;99340.81;1759442;82;21752;-91
2021/04/22 03:43:07;;;;;;;18.98;8.68;;;;;;;4.65;88.65;99344.70;1759080;82;21311;-88
2021/04/22 03:45:34;;;;;;;23.80;10.60;;;;;;;4.69;88.58;99349.00;1758618;82;21250;-89
2021/04/22 03:48:02;;;;;;;25.45;11.28;;;;;;;4.78;88.15;99354.63;1758187;82;22357;-89
2021/04/22 03:50:29;;;;;;;25.20;10.03;;;;;;;4.77;88.72;99355.06;1750789;82;21371;-88
2021/04/22 03:52:57;;;;;;;22.98;10.18;;;;;;;4.81;88.07;99356.34;1757148;82;21322;-90
2021/04/22 03:55:25;;;;;;;21.15;10.25;;;;;;;4.78;87.96;99343.03;1756953;81;21145;-93
2021/04/22 03:57:52;;;;;;;25.50;11.30;;;;;;;4.82;87.14;99340.89;1755784;81;21141;-90
2021/04/22 04:00:45;;;;;;;18.77;9.90;;;;;;;4.75;89.02;99352.87;1705982;84;21157;-90
2021/04/22 04:03:13;;;;;;;25.15;9.95;;;;;;;4.77;88.22;99356.75;1650404;87;21200;-87
2021/04/22 04:05:40;;;;;;;26.70;10.65;;;;;;;4.77;89.11;99355.47;1702059;84;21287;-84
2021/04/22 04:08:07;;;;;;;25.57;10.13;;;;;;;4.83;87.52;99350.77;1712234;84;21323;-85
2021/04/22 04:10:35;;;;;;;26.65;9.55;;;;;;;4.86;87.85;99355.94;1700872;84;21238;-85
2021/04/22 04:13:02;;;;;;;19.30;9.45;;;;;;;4.90;88.72;99356.38;1656378;87;21355;-82
2021/04/22 04:15:30;;;;;;;21.68;10.05;;;;;;;4.96;88.00;99355.94;1663502;85;21151;-83
2021/04/22 04:18:03;;;;;;;19.92;8.93;;;;;;;5.02;88.93;99355.53;1690489;81;21216;-89
2021/04/22 04:20:41;;;;;;;17.82;9.15;;;;;;;5.00;89.50;99354.23;1703277;84;21168;-84
2021/04/22 04:23:09;;;;;;;17.67;9.70;;;;;;;5.09;89.13;99355.55;1689549;84;21198;-86
2021/04/22 04:25:36;;;;;;;17.45;9.13;;;;;;;5.12;88.94;99364.99;1683053;82;21196;-90
2021/04/22 04:28:04;;;;;;;27.80;10.72;;;;;;;5.16;88.81;99360.27;1684714;84;21193;-90
2021/04/22 04:30:32;;;;;;;28.35;10.72;;;;;;;5.21;88.60;99362.41;1768731;78;21319;-89
2021/04/22 04:33:00;;;;;;;22.13;9.60;;;;;;;5.26;88.10;99356.84;1786517;79;21311;-90
2021/04/22 04:36:12;;;;;;;21.75;8.63;;;;;;;5.33;87.32;99363.73;1702512;83;21224;-92
2021/04/22 04:38:40;;;;;;;17.92;8.88;;;;;;;5.32;87.58;99375.32;1776883;80;21598;-93
2021/04/22 04:41:37;;;;;;;19.23;8.48;;;;;;;5.33;87.33;99370.17;1684474;83;21285;-92
2021/04/22 04:44:05;;;;;;;21.12;9.35;;;;;;;5.34;87.10;99370.59;1641746;86;21214;-91
2021/04/22 04:46:33;;;;;;;25.85;10.08;;;;;;;5.38;86.55;99369.73;1651137;84;21207;-91
2021/04/22 04:49:13;;;;;;;21.93;9.60;;;;;;;5.32;87.05;99375.32;1659218;85;21176;-91
2021/04/22 04:51:41;;;;;;;23.90;9.20;;;;;;;5.35;87.10;99377.88;1739407;81;21168;-91
2021/04/22 04:54:09;;;;;;;21.68;10.45;;;;;;;5.42;87.02;99386.06;1743432;82;21665;-91
2021/04/22 04:56:37;;;;;;;20.32;9.78;;;;;;;5.55;86.72;99383.05;1742363;82;21735;-92
2021/04/22 04:59:05;;;;;;;18.12;8.95;;;;;;;5.63;86.64;99384.34;1710103;84;21199;-92
2021/04/22 05:01:32;;;;;;;28.17;9.90;;;;;;;5.74;86.41;99383.91;1716090;82;21175;-92
2021/04/22 05:04:00;;;;;;;24.07;10.68;;;;;;;5.77;86.41;99386.06;1709609;84;21976;-90
2021/04/22 05:06:28;;;;;;;27.48;11.20;;;;;;;5.59;86.73;99360.29;1740992;81;21149;-92
2021/04/22 05:08:56;;;;;;;35.20;12.58;;;;;;;5.80;86.69;99386.48;1729028;82;21311;-92
2021/04/22 05:11:24;;;;;;;25.43;10.65;;;;;;;5.96;85.69;99378.31;1739366;82;21185;-89
2021/04/22 05:13:54;;;;;;;23.42;10.80;;;;;;;5.93;85.43;99380.89;1713718;84;21282;-94
2021/04/22 05:25:28;;;;;;;19.27;8.90;;;;;;;6.21;85.24;99387.28;1712925;80;21526;-93
2021/04/22 05:27:59;;;;;;;20.43;9.15;;;;;;;6.30;84.99;99385.98;1683507;84;21311;-93
2021/04/22 05:34:24;;;;;;;24.32;10.50;;;;;;;6.40;84.26;99364.41;1764924;79;21208;-91
2021/04/22 05:37:00;;;;;;;22.10;9.35;;;;;;;6.63;84.08;99393.19;1680505;83;21165;-93
2021/04/22 05:39:29;;;;;;;18.17;9.40;;;;;;;6.63;83.64;99391.89;1697613;85;21343;-94
2021/04/22 05:41:58;;;;;;;19.60;9.60;;;;;;;6.70;83.65;99392.27;1697564;85;21223;-92
2021/04/22 05:44:57;;;;;;;16.40;8.60;;;;;;;6.76;83.34;99393.13;1776916;81;21210;-93
2021/04/22 05:48:01;;;;;;;17.55;7.72;;;;;;;6.86;82.64;99393.91;1677018;84;21421;-95
2021/04/22 06:17:49;;;;;;;17.82;8.68;;;;;;;7.57;81.44;99396.89;1741451;78;21286;31
2021/04/22 06:37:37;;;;;;;17.42;8.18;;;;;;;7.89;78.56;99388.42;1725370;78;21272;31
2021/04/22 06:41:03;;;;;;;13.83;7.60;;;;;;;7.79;78.02;99395.86;1727977;80;21205;-93
2021/04/22 06:43:31;;;;;;;14.90;9.50;;;;;;;7.94;78.64;99384.92;1642866;86;21325;-85
2021/04/22 06:45:58;;;;;;;14.85;8.30;;;;;;;8.08;78.83;99378.31;1674516;84;21199;-91
2021/04/22 06:48:46;;;;;;;17.30;9.28;;;;;;;8.23;78.10;99387.64;1722137;82;21248;-95
2021/04/22 06:51:15;;;;;;;16.20;8.80;;;;;;;8.36;78.44;99387.93;1762015;81;21140;-94
2021/04/22 06:53:43;;;;;;;14.23;7.25;;;;;;;8.48;78.94;99392.15;1763023;80;21395;-93
2021/04/22 06:56:33;;;;;;;12.60;7.62;;;;;;;8.65;78.74;99386.74;1728199;81;21194;-90
2021/04/22 06:59:06;;;;;;;18.57;7.80;;;;;;;8.84;78.41;99378.30;1726245;81;21197;-87
2021/04/22 07:01:33;;;;;;;15.23;7.85;;;;;;;9.04;77.28;99381.91;1742356;80;21145;-88
2021/04/22 07:04:01;;;;;;;14.05;7.67;;;;;;;9.25;76.70;99388.53;1751899;80;21165;-82
2021/04/22 07:06:28;;;;;;;12.73;7.70;;;;;;;9.45;76.30;99383.45;1767862;80;21328;-94
2021/04/22 07:09:23;;;;;;;16.12;8.55;;;;;;;9.58;76.65;99379.79;1776495;80;21285;-94
2021/04/22 07:12:21;;;;;;;13.43;8.25;;;;;;;9.76;75.84;99388.55;1756963;80;21307;-92
2021/04/22 07:14:49;;;;;;;18.65;8.00;;;;;;;9.94;74.44;99391.27;1691902;83;21168;-91
2021/04/22 07:17:21;;;;;;;18.25;8.95;;;;;;;10.10;75.50;99391.01;1683748;83;21161;-89
2021/04/22 07:20:15;;;;;;;;;;;;;;;;;;;;;
2021/04/22 07:23:13;;;;;;;15.08;8.43;;;;;;;10.42;72.72;99370.92;1715020;81;21153;-89
2021/04/22 07:25:55;;;;;;;15.72;8.00;;;;;;;10.67;73.58;99376.94;1709939;82;21422;-92
2021/04/22 07:28:23;;;;;;;14.63;7.75;;;;;;;10.88;72.80;99371.28;1684987;83;21204;-92
2021/04/22 07:31:44;;;;;;;15.08;7.33;;;;;;;11.10;72.61;99378.59;1697960;84;21201;-93
2021/04/22 07:37:07;;;;;;;15.08;8.93;;;;;;;11.63;72.34;99377.77;1657564;85;21736;-84
2021/04/22 07:39:35;;;;;;;16.73;8.93;;;;;;;11.88;71.16;99368.89;1723751;79;21276;-93
2021/04/22 07:42:04;;;;;;;17.05;8.95;;;;;;;12.09;68.77;99371.84;1738283;81;21267;-94
2021/04/22 07:44:32;;;;;;;19.17;9.08;;;;;;;12.31;68.58;99366.90;1746057;81;21271;-93
2021/04/22 07:47:02;;;;;;;18.15;9.05;;;;;;;12.57;67.50;99366.61;1744821;80;21140;-89
2021/04/22 07:49:32;;;;;;;15.85;8.98;;;;;;;12.73;65.75;99353.52;1788140;78;21137;-92
2021/04/22 07:52:00;;;;;;;21.90;9.50;;;;;;;13.01;65.59;99358.78;1802415;79;21307;-85
2021/04/22 07:54:27;;;;;;;32.25;8.08;;;;;;;13.24;61.70;99359.81;1787635;78;21285;-90
2021/04/22 07:56:55;;;;;;;20.72;8.95;;;;;;;13.44;62.37;99355.28;1801333;78;21157;-85
2021/04/22 07:59:24;;;;;;;19.30;8.98;;;;;;;13.65;63.52;99351.97;1798533;79;21140;-92
2021/04/22 08:02:26;;;;;;;14.00;7.85;;;;;;;13.86;57.26;99349.52;1764786;81;21989;-91
2021/04/22 08:04:53;;;;;;;15.90;7.97;;;;;;;14.04;55.73;99349.33;1768882;80;21176;-87
2021/04/22 08:07:20;;;;;;;16.85;8.50;;;;;;;14.18;58.01;99350.99;1759764;80;21153;-88
2021/04/22 08:09:48;;;;;;;18.17;8.80;;;;;;;14.38;56.47;99349.43;1757371;81;21284;-89
2021/04/22 08:12:15;;;;;;;15.35;8.05;;;;;;;14.52;52.88;99353.69;1760658;80;21272;-91
2021/04/22 08:14:43;;;;;;;20.25;8.85;;;;;;;14.70;52.71;99358.72;1797531;79;21710;-84
2021/04/22 08:17:16;;;;;;;17.65;7.97;;;;;;;14.90;55.60;99343.13;1735059;81;21181;-87
2021/04/22 08:19:47;;;;;;;18.20;9.05;;;;;;;15.07;50.30;99339.84;1735704;82;21242;-86
2021/04/22 08:22:45;;;;;;;21.65;9.05;;;;;;;15.28;50.36;99341.22;1762198;80;21129;-88
2021/04/22 08:25:57;;;;;;;14.13;7.87;;;;;;;15.49;49.11;99350.80;1752283;80;21280;-91
2021/04/22 08:28:31;;;;;;;15.18;7.62;;;;;;;15.73;48.59;99340.71;1713426;81;21292;-88
2021/04/22 08:34:50;;;;;;;17.82;7.67;;;;;;;16.09;47.22;99348.32;1771697;80;20191;-92
2021/04/22 08:40:26;;;;;;;15.80;8.30;;;;;;;16.46;48.57;99340.58;1651097;85;21302;-91
2021/04/22 08:42:55;;;;;;;18.20;8.35;;;;;;;16.58;48.39;99340.48;1686433;84;21339;-90
2021/04/22 09:05:01;;;;;;;15.60;8.53;;;;;;;16.56;46.72;99338.39;1701592;79;21544;-86
2021/04/22 09:10:53;;;;;;;17.12;9.33;;;;;;;16.56;48.58;99330.52;1720654;82;21677;-84
2021/04/22 09:13:27;;;;;;;19.52;9.23;;;;;;;16.53;48.05;99329.33;1712970;82;21171;-89
2021/04/22 09:16:47;;;;;;;20.77;10.13;;;;;;;16.56;47.28;99326.11;1706388;83;21228;-87
2021/04/22 09:22:48;;;;;;;15.65;8.80;;;;;;;16.59;48.62;99321.17;1672328;82;21258;-87
2021/04/22 09:28:49;;;;;;;14.78;7.37;;;;;;;16.62;45.49;99319.27;1626926;82;21314;-86
2021/04/22 09:31:47;;;;;;;16.55;8.63;;;;;;;16.78;45.13;99318.09;1650991;86;21337;-87
2021/04/22 09:35:08;;;;;;;14.90;7.20;;;;;;;16.70;43.97;99317.13;1649939;85;21210;-88
2021/04/22 09:38:25;;;;;;;16.32;8.60;;;;;;;16.81;45.32;99319.70;1690960;82;21210;-87
2021/04/22 09:48:28;;;;;;;15.80;8.08;;;;;;;16.99;44.63;99304.88;1743324;80;21346;-86
2021/04/22 09:51:15;;;;;;;15.90;7.37;;;;;;;17.06;45.32;99304.98;1679539;84;21135;-88
2021/04/22 09:54:23;;;;;;;15.18;6.53;;;;;;;17.10;45.85;99304.75;1681761;85;21205;-87
2021/04/22 09:57:28;;;;;;;9.50;5.75;;;;;;;17.16;43.87;99302.30;1691605;81;21487;-85
2021/04/22 10:00:38;;;;;;;11.95;6.08;;;;;;;17.24;42.19;99297.52;1734579;80;22015;-83
2021/04/22 10:03:10;;;;;;;9.55;5.95;;;;;;;17.33;43.70;99281.77;1750652;81;21671;-83
2021/04/22 10:05:41;;;;;;;16.10;6.60;;;;;;;17.51;42.68;99281.31;1750788;81;21194;-85
2021/04/22 10:08:14;;;;;;;8.75;5.37;;;;;;;17.65;42.04;99274.88;1736633;80;21296;-87
2021/04/22 10:11:04;;;;;;;8.33;4.90;;;;;;;17.84;40.31;99273.48;1725519;81;21230;-86
2021/04/22 10:13:49;;;;;;;13.08;5.35;;;;;;;17.98;41.45;99263.55;1723777;82;21269;-86
2021/04/22 10:16:37;;;;;;;15.15;4.90;;;;;;;18.05;37.88;99255.73;1759640;80;21267;-87
2021/04/22 10:25:52;;;;;;;7.35;3.47;;;;;;;18.95;34.93;99239.00;1767347;78;21155;-88
2021/04/22 10:28:23;;;;;;;8.65;4.17;;;;;;;19.18;36.75;99222.72;1654161;82;21261;-88
2021/04/22 10:37:11;;;;;;;11.60;4.87;;;;;;;19.67;34.48;99232.95;1726465;79;21195;-85
2021/04/22 10:39:39;;;;;;;9.50;5.47;;;;;;;19.61;36.11;99221.47;1718354;82;21185;-86
2021/04/22 10:42:08;;;;;;;9.40;4.35;;;;;;;19.46;35.35;99223.73;1680887;83;21226;-80
2021/04/22 10:44:38;;;;;;;7.92;4.08;;;;;;;19.44;34.53;99215.06;1678669;84;21178;-81
2021/04/22 10:47:06;;;;;;;11.97;4.33;;;;;;;19.52;33.00;99217.21;1687740;84;21186;-80
2021/04/22 10:49:33;;;;;;;10.15;4.15;;;;;;;19.56;34.26;99211.69;1682618;84;21191;-79
2021/04/22 10:52:03;;;;;;;13.35;3.80;;;;;;;19.71;34.96;99206.41;1686904;83;21198;-80
2021/04/22 10:54:32;;;;;;;11.33;3.77;;;;;;;19.91;34.24;99206.54;1647583;85;22004;-80
2021/04/22 10:57:16;;;;;;;6.67;3.70;;;;;;;20.11;33.33;99207.45;1683652;83;21157;-81
2021/04/22 10:59:44;;;;;;;8.25;4.22;;;;;;;20.28;31.97;99202.45;1679402;84;21191;-82
2021/04/22 11:02:23;;;;;;;10.65;3.83;;;;;;;20.53;32.94;99196.46;1685123;83;21137;-71
2021/04/22 11:04:51;;;;;;;8.45;4.05;;;;;;;20.66;32.05;99199.17;1678744;83;21649;-70
2021/04/22 11:07:23;;;;;;;9.40;3.45;;;;;;;20.75;31.36;99189.78;1685101;83;21541;-84
2021/04/22 11:09:54;;;;;;;7.47;4.03;;;;;;;21.03;32.24;99189.67;1698619;84;21165;-85
2021/04/22 11:12:27;;;;;;;11.95;3.52;;;;;;;21.20;31.67;99187.20;1695729;84;21726;-86
2021/04/22 11:14:58;;;;;;;6.40;3.70;;;;;;;21.21;31.02;99182.30;1720691;83;21732;-88
2021/04/22 11:17:40;;;;;;;10.68;3.90;;;;;;;21.16;31.45;99196.29;1712325;83;21152;-84
2021/04/22 11:20:19;;;;;;;13.43;3.83;;;;;;;21.08;32.27;99182.75;1730327;82;21237;-85
2021/04/22 11:22:50;;;;;;;8.00;3.42;;;;;;;20.93;32.42;99181.98;1722891;83;21115;-86
2021/04/22 11:25:23;;;;;;;5.85;3.37;;;;;;;20.64;31.07;99185.22;1723418;81;21131;-85
2021/04/22 11:27:56;;;;;;;9.40;3.50;;;;;;;20.81;31.89;99175.72;1713720;82;21367;-87
2021/04/22 11:30:39;;;;;;;10.32;3.42;;;;;;;20.84;31.90;99180.78;1705865;82;21296;-87
2021/04/22 11:33:10;;;;;;;;;;;;;;;20.67;31.99;99186.32;1677821;85;21243;-86
2021/04/22 11:35:37;;;;;;;20.95;3.85;;;;;;;20.65;32.49;99184.25;1682963;84;20141;-85
2021/04/22 11:38:10;;;;;;;14.55;3.95;;;;;;;20.24;33.89;99184.63;1695892;83;21249;-85
2021/04/22 11:40:48;;;;;;;9.03;4.10;;;;;;;19.73;33.95;99180.34;1659981;86;21501;-86
2021/04/22 11:43:25;;;;;;;10.82;3.70;;;;;;;19.33;35.61;99195.91;1700532;83;21245;-87
2021/04/22 11:45:56;;;;;;;12.80;3.80;;;;;;;19.01;36.09;99186.80;1694048;83;21227;-87
2021/04/22 11:48:23;;;;;;;6.97;3.65;;;;;;;18.62;36.49;99196.04;1748434;78;21264;-87
2021/04/22 11:50:59;;;;;;;6.22;3.37;;;;;;;18.46;36.75;99182.02;1766384;80;21324;-86
2021/04/22 11:53:40;;;;;;;8.78;3.67;;;;;;;18.09;36.47;99182.28;1738802;81;21282;-86
2021/04/22 11:56:12;;;;;;;10.48;3.58;;;;;;;18.19;37.15;99190.52;1695375;85;21273;-87
2021/04/22 11:58:41;;;;;;;5.45;3.12;;;;;;;18.34;37.13;99184.87;1736470;82;21345;-85
2021/04/22 12:01:11;;;;;;;5.47;3.60;;;;;;;18.49;36.26;99184.49;1723253;81;21159;-86
2021/04/22 12:03:41;;;;;;;11.08;3.70;;;;;;;18.58;34.90;99181.80;1720806;83;21309;-86
2021/04/22 12:06:16;;;;;;;5.50;3.22;;;;;;;18.63;33.82;99185.03;1710569;82;21272;-87
2021/04/22 12:08:49;;;;;;;8.73;3.15;;;;;;;18.99;34.58;99189.16;1751547;82;21288;-88
2021/04/22 12:11:22;;;;;;;7.40;3.90;;;;;;;19.36;33.09;99193.11;1751456;80;21156;-89
2021/04/22 12:13:51;;;;;;;6.47;3.02;;;;;;;19.62;32.47;99171.75;1724099;83;21287;-87
2021/04/22 12:16:20;;;;;;;9.65;3.25;;;;;;;19.79;31.92;99180.44;1731510;82;21184;-86
2021/04/22 12:18:48;;;;;;;10.25;3.42;;;;;;;19.47;30.18;99174.84;1760486;81;21661;-86
2021/04/22 12:21:20;;;;;;;11.55;2.83;;;;;;;19.52;29.94;99169.30;1725973;81;21694;-85
2021/04/22 12:23:59;;;;;;;8.70;2.90;;;;;;;19.61;30.99;99165.25;1816057;77;22368;-87
2021/04/22 12:26:33;;;;;;;9.78;3.25;;;;;;;19.36;30.76;99160.16;1803440;78;21267;-84
2021/04/22 12:29:05;;;;;;;6.05;2.65;;;;;;;19.48;30.69;99167.80;1798640;80;21272;-87
2021/04/22 12:31:40;;;;;;;6.37;2.52;;;;;;;20.04;30.20;99148.95;1800384;78;21260;-86
2021/04/22 12:34:15;;;;;;;5.05;2.75;;;;;;;20.60;30.26;99156.83;1814645;78;21259;-87
2021/04/22 12:49:35;;;;;;;8.55;3.47;;;;;;;22.99;25.76;99154.69;1721751;79;21183;-82
2021/04/22 13:08:07;;;;;;;10.40;3.55;;;;;;;23.49;26.78;99147.34;1713548;79;21204;-88
2021/04/22 13:10:39;;;;;;;10.28;3.90;;;;;;;23.65;25.01;99139.03;1686802;84;21154;-85
2021/04/22 13:13:08;;;;;;;5.67;3.00;;;;;;;23.95;24.85;99138.92;1677733;83;21332;-84
2021/04/22 13:15:37;;;;;;;6.03;2.90;;;;;;;24.36;25.36;99130.27;1676480;84;21324;-85
2021/04/22 13:18:15;;;;;;;6.08;3.10;;;;;;;24.01;24.11;99123.36;1671857;84;21199;-86
2021/04/22 13:20:48;;;;;;;5.58;2.60;;;;;;;24.22;24.50;99126.08;1680961;83;21155;-85
2021/04/22 13:23:19;;;;;;;;;;;;;;;24.35;23.39;99127.27;1689968;83;21308;-85
2021/04/22 13:25:47;;;;;;;7.12;3.17;;;;;;;24.16;24.53;99137.20;1672450;83;20268;-85
2021/04/22 13:28:20;;;;;;;6.20;2.67;;;;;;;24.56;24.07;99123.84;1678866;83;21305;-83
2021/04/22 13:30:55;;;;;;;5.53;2.98;;;;;;;24.80;23.49;99132.42;1672765;84;21127;-89
2021/04/22 13:33:30;;;;;;;7.28;3.10;;;;;;;25.18;24.67;99123.51;1687127;83;21133;-89
2021/04/22 13:36:10;;;;;;;10.63;5.15;;;;;;;24.87;22.79;99118.61;1662372;85;21185;-88
2021/04/22 13:38:51;;;;;;;10.05;3.70;;;;;;;24.93;23.22;99113.64;1679375;84;21182;-90
2021/04/22 13:54:37;;;;;;;12.45;3.92;;;;;;;22.25;26.59;99104.53;1666806;83;21239;-85
2021/04/22 13:57:23;;;;;;;9.00;3.72;;;;;;;22.61;27.09;99094.81;1692175;83;21192;-81
2021/04/22 14:00:02;;;;;;;10.10;3.25;;;;;;;22.38;26.95;99095.19;1686179;83;21199;-85
2021/04/22 14:02:40;;;;;;;9.80;3.22;;;;;;;22.32;27.68;99096.52;1704273;84;21131;-86
2021/04/22 14:05:14;;;;;;;8.73;3.22;;;;;;;22.18;27.30;99098.82;1682699;85;21378;-85
2021/04/22 14:07:56;;;;;;;6.60;3.25;;;;;;;21.95;27.48;99099.64;1660445;84;21782;-86
2021/04/22 14:10:33;;;;;;;8.78;3.00;;;;;;;22.03;27.85;99094.14;1691450;83;21349;-87
2021/04/22 14:13:03;;;;;;;6.65;3.20;;;;;;;21.35;28.87;99093.27;1681769;84;21360;-86
2021/04/22 14:15:31;;;;;;;5.50;2.80;;;;;;;21.21;29.59;99098.19;1685499;83;21216;-85
2021/04/22 14:18:00;;;;;;;7.40;2.92;;;;;;;21.09;29.51;99090.62;1709147;83;21298;-85
2021/04/22 14:20:28;;;;;;;5.95;2.95;;;;;;;20.56;29.85;99091.08;1705169;82;22505;-84
2021/04/22 14:22:56;;;;;;;5.83;3.08;;;;;;;20.26;30.88;99089.52;1695262;84;21191;-85
2021/04/22 14:25:23;;;;;;;10.78;3.25;;;;;;;20.08;30.51;99088.91;1651711;86;21390;-86
2021/04/22 14:27:50;;;;;;;8.95;2.90;;;;;;;19.75;30.33;99082.19;1694598;83;21174;-85
2021/04/22 14:30:21;;;;;;;7.05;3.30;;;;;;;19.15;31.16;99083.22;1677100;84;21189;-83
2021/04/22 14:32:48;;;;;;;8.10;3.25;;;;;;;18.88;31.25;99080.48;1698350;83;21240;-82
2021/04/22 14:35:16;;;;;;;5.53;2.90;;;;;;;18.77;31.68;99086.33;1677105;84;21195;-82
2021/04/22 14:37:43;;;;;;;4.05;2.60;;;;;;;18.56;32.55;99091.53;1691041;83;21201;-81
2021/04/22 14:40:14;;;;;;;10.63;3.42;;;;;;;18.34;33.04;99082.70;1692697;84;21198;-83